Hamon, Texas
Current Conditions -  °F | °C
As of 7:55 PM on Monday 24 Nov 2014 (Local Time) from KT20 Reporting Station
Clear Clear  
Wind Chill: 53°   Ceiling: Unl
Heat Index: 53°   Visibility: 10mi
Dew Point: 30°   Wind: 6mph
Humidity: 42%   Direction: 30°NNE
Pressure: 30.12"   Gusts: NA
Location:  29.481°N, 97.4305°W
Report Text: KT20 250155Z AUTO 03005KT 10SM CLR 12/M01 A3012 RMK AO2 T01171009
Loading
Personal Weather Stations






























Interactive Weather Map New forecast layout! Learn more

10-Day Weather Forecast

Advertisements
Track Severe Weather on mobile